Fedora — SLKU — position and weather

sailwx.info

Track history (hours):
 
Tides and Currents Weather Stations Pressure Air Temp Water Temp Dewpoint Dewpoint Depression Visibility Wind Speed Wind Dir Waves Ship Positions

Fedora

Last reported at 2017-Dec-11 16:58 UTC. Time now 2017-Dec-11 22:58 UTC.
Position N 40°42' W 074°09'.

Length 228 m; draft 8.5 m.

Type: Cargo ship. MMSI: 266259000.

Date/timePositionNaut miles runAvg speedWind from/ knotsBaromVisibWave heightAir tempDewpointWater temp
2017-Dec-11 16:58N 40°42' W 074°09'0 0.0
2017-Dec-11 16:28N 40°42' W 074°09'0 0.0
2017-Dec-11 15:58N 40°42' W 074°09'0 0.0
2017-Dec-11 15:28N 40°42' W 074°09'0 0.0
2017-Dec-11 14:58N 40°42' W 074°09'0 0.0
2017-Dec-11 14:28N 40°42' W 074°09'0 0.0
2017-Dec-11 13:58N 40°42' W 074°09'0 0.0
2017-Dec-11 13:28N 40°42' W 074°09'0 0.0
2017-Dec-11 12:58N 40°42' W 074°09'0 0.0
2017-Dec-11 12:28N 40°42' W 074°09'0 0.0
2017-Dec-11 11:59N 40°42' W 074°09'0 0.0
2017-Dec-11 11:28N 40°42' W 074°09'0 0.0
2017-Dec-11 10:58N 40°42' W 074°09'0 0.0
2017-Dec-11 10:28N 40°42' W 074°09'0 0.0
2017-Dec-11 09:58N 40°42' W 074°09'0 0.0
2017-Dec-11 09:28N 40°42' W 074°09'0 0.0
2017-Dec-11 08:58N 40°42' W 074°09'0 0.0
2017-Dec-11 08:22N 40°42' W 074°09'0 0.0
2017-Dec-11 07:58N 40°42' W 074°09'0 0.0
2017-Dec-11 07:28N 40°42' W 074°09'0 0.0
2017-Dec-11 06:58N 40°42' W 074°09'0 0.0
2017-Dec-11 06:28N 40°42' W 074°09'0 0.0
2017-Dec-11 05:58N 40°42' W 074°09'0 0.0
2017-Dec-11 05:28N 40°42' W 074°09'0 0.0
2017-Dec-11 04:58N 40°42' W 074°09'0 0.0
2017-Dec-11 04:28N 40°42' W 074°09'0 0.0
2017-Dec-11 03:58N 40°42' W 074°09'0 0.0
2017-Dec-11 03:28N 40°42' W 074°09'0 0.0
2017-Dec-11 02:58N 40°42' W 074°09'0 0.0
2017-Dec-11 02:28N 40°42' W 074°09'0 0.0
2017-Dec-11 01:58N 40°42' W 074°09'0 0.0
2017-Dec-11 01:28N 40°42' W 074°09'0 0.0
2017-Dec-11 00:58N 40°42' W 074°09'0 0.0
2017-Dec-11 00:28N 40°42' W 074°09'0 0.0
2017-Dec-10 23:58N 40°42' W 074°09'0 0.0
2017-Dec-10 23:25N 40°42' W 074°09'0 0.0
2017-Dec-10 22:58N 40°42' W 074°09'0 0.0
2017-Dec-10 22:28N 40°42' W 074°09'0 0.0
2017-Dec-10 21:58N 40°42' W 074°09'0 0.0
2017-Dec-10 21:28N 40°42' W 074°09'0 0.0
2017-Dec-10 20:58N 40°42' W 074°09'0 0.0
2017-Dec-10 20:28N 40°42' W 074°09'0 0.0
2017-Dec-10 19:58N 40°42' W 074°09'0 0.0
2017-Dec-10 19:28N 40°42' W 074°09'0 0.0
2017-Dec-10 18:58N 40°42' W 074°09'0 0.0
2017-Dec-10 18:28N 40°42' W 074°09'0 0.0
2017-Dec-10 17:58N 40°42' W 074°09'0 0.0
2017-Dec-10 17:28N 40°42' W 074°09'0 0.0
2017-Dec-10 16:58N 40°42' W 074°09'0 0.0
2017-Dec-10 16:25N 40°42' W 074°09'0 0.0
2017-Dec-10 15:58N 40°42' W 074°09'0 0.0
2017-Dec-10 15:28N 40°42' W 074°09'0 0.0
2017-Dec-10 14:58N 40°42' W 074°09'0 0.0
2017-Dec-10 14:28N 40°42' W 074°09'0 0.0
2017-Dec-10 13:58N 40°42' W 074°09'0 0.0
2017-Dec-10 13:28N 40°42' W 074°09'0 0.0
2017-Dec-10 12:58N 40°42' W 074°09'0 0.0
2017-Dec-10 12:28N 40°42' W 074°09'0 0.0
2017-Dec-10 11:58N 40°42' W 074°09'0 0.0
2017-Dec-10 11:28N 40°42' W 074°09'1 2.0
2017-Dec-10 11:00N 40°41' W 074°08'3 5.2
2017-Dec-10 10:30N 40°39' W 074°08'3 6.8
2017-Dec-10 10:00N 40°38' W 074°03'510.0
2017-Dec-10 09:30N 40°34' W 074°02'510.6
2017-Dec-10 09:00N 40°30' W 073°57'5 9.8
2017-Dec-10 08:30N 40°28' W 073°51'4 7.2
2017-Dec-10 08:00N 40°26' W 073°47'3 5.5
2017-Dec-10 07:30N 40°25' W 073°43'4 8.5
2017-Dec-10 07:00N 40°22' W 073°39'  
2017-Dec-04 10:26N 39°15' W 076°32'1 2.0
2017-Dec-04 10:01N 39°14' W 076°33'2 3.6
2017-Dec-04 09:29N 39°12' W 076°31'1119.5
2017-Dec-04 08:56N 39°04' W 076°23'0 0.9
2017-Dec-04 08:30N 39°03' W 076°23'714.3
2017-Dec-04 08:00N 38°56' W 076°23'816.9
2017-Dec-04 07:30N 38°48' W 076°25'1217.1
2017-Dec-04 06:49N 38°36' W 076°26'517.1
2017-Dec-04 06:30N 38°31' W 076°25'4320.8
2017-Dec-04 04:26N 37°49' W 076°10'1016.2
2017-Dec-04 03:48N 37°39' W 076°08'2912.9
2017-Dec-04 01:35N 37°11' W 076°09'217.4
2017-Dec-04 01:28N 37°09' W 076°09'817.7
2017-Dec-04 01:00N 37°02' W 076°03'713.1
2017-Dec-04 00:30N 36°57' W 075°58'5 9.6
2017-Dec-04 00:00N 36°54' W 075°53'510.0
2017-Dec-03 23:29N 36°51' W 075°48'334 9.1
2017-Dec-02 10:58N 32°05' W 079°17'7 9.5
2017-Dec-02 10:12N 32°01' W 079°23'7 9.9
2017-Dec-02 09:30N 31°56' W 079°29'9 9.3
2017-Dec-02 08:34N 31°50' W 079°37'1 9.2
2017-Dec-02 08:27N 31°49' W 079°38'10 9.2
2017-Dec-02 07:20N 31°42' W 079°47'4 9.0
2017-Dec-02 06:53N 31°40' W 079°50'8 9.1
2017-Dec-02 06:04N 31°35' W 079°57'1 9.1
2017-Dec-02 06:00N 31°35' W 079°58'  
Track history (hours):
 
Tides and Currents Weather Stations Pressure Air Temp Water Temp Dewpoint Dewpoint Depression Visibility Wind Speed Wind Dir Waves Ship Positions

Fedora

Last reported at 2017-Dec-11 16:58 UTC. Time now 2017-Dec-11 22:58 UTC.
Position N 40°42' W 074°09'.

Length 228 m; draft 8.5 m.

Type: Cargo ship. MMSI: 266259000.

Date/timePositionNaut miles runAvg speedWind from/ knotsBaromVisibWave heightAir tempDewpointWater temp
2017-Dec-11 16:58N 40°42' W 074°09'0 0.0
2017-Dec-11 16:28N 40°42' W 074°09'0 0.0
2017-Dec-11 15:58N 40°42' W 074°09'0 0.0
2017-Dec-11 15:28N 40°42' W 074°09'0 0.0
2017-Dec-11 14:58N 40°42' W 074°09'0 0.0
2017-Dec-11 14:28N 40°42' W 074°09'0 0.0
2017-Dec-11 13:58N 40°42' W 074°09'0 0.0
2017-Dec-11 13:28N 40°42' W 074°09'0 0.0
2017-Dec-11 12:58N 40°42' W 074°09'0 0.0
2017-Dec-11 12:28N 40°42' W 074°09'0 0.0
2017-Dec-11 11:59N 40°42' W 074°09'0 0.0
2017-Dec-11 11:28N 40°42' W 074°09'0 0.0
2017-Dec-11 10:58N 40°42' W 074°09'0 0.0
2017-Dec-11 10:28N 40°42' W 074°09'0 0.0
2017-Dec-11 09:58N 40°42' W 074°09'0 0.0
2017-Dec-11 09:28N 40°42' W 074°09'0 0.0
2017-Dec-11 08:58N 40°42' W 074°09'0 0.0
2017-Dec-11 08:22N 40°42' W 074°09'0 0.0
2017-Dec-11 07:58N 40°42' W 074°09'0 0.0
2017-Dec-11 07:28N 40°42' W 074°09'0 0.0
2017-Dec-11 06:58N 40°42' W 074°09'0 0.0
2017-Dec-11 06:28N 40°42' W 074°09'0 0.0
2017-Dec-11 05:58N 40°42' W 074°09'0 0.0
2017-Dec-11 05:28N 40°42' W 074°09'0 0.0
2017-Dec-11 04:58N 40°42' W 074°09'0 0.0
2017-Dec-11 04:28N 40°42' W 074°09'0 0.0
2017-Dec-11 03:58N 40°42' W 074°09'0 0.0
2017-Dec-11 03:28N 40°42' W 074°09'0 0.0
2017-Dec-11 02:58N 40°42' W 074°09'0 0.0
2017-Dec-11 02:28N 40°42' W 074°09'0 0.0
2017-Dec-11 01:58N 40°42' W 074°09'0 0.0
2017-Dec-11 01:28N 40°42' W 074°09'0 0.0
2017-Dec-11 00:58N 40°42' W 074°09'0 0.0
2017-Dec-11 00:28N 40°42' W 074°09'0 0.0
2017-Dec-10 23:58N 40°42' W 074°09'0 0.0
2017-Dec-10 23:25N 40°42' W 074°09'0 0.0
2017-Dec-10 22:58N 40°42' W 074°09'0 0.0
2017-Dec-10 22:28N 40°42' W 074°09'0 0.0
2017-Dec-10 21:58N 40°42' W 074°09'0 0.0
2017-Dec-10 21:28N 40°42' W 074°09'0 0.0
2017-Dec-10 20:58N 40°42' W 074°09'0 0.0
2017-Dec-10 20:28N 40°42' W 074°09'0 0.0
2017-Dec-10 19:58N 40°42' W 074°09'0 0.0
2017-Dec-10 19:28N 40°42' W 074°09'0 0.0
2017-Dec-10 18:58N 40°42' W 074°09'0 0.0
2017-Dec-10 18:28N 40°42' W 074°09'0 0.0
2017-Dec-10 17:58N 40°42' W 074°09'0 0.0
2017-Dec-10 17:28N 40°42' W 074°09'0 0.0
2017-Dec-10 16:58N 40°42' W 074°09'0 0.0
2017-Dec-10 16:25N 40°42' W 074°09'0 0.0
2017-Dec-10 15:58N 40°42' W 074°09'0 0.0
2017-Dec-10 15:28N 40°42' W 074°09'0 0.0
2017-Dec-10 14:58N 40°42' W 074°09'0 0.0
2017-Dec-10 14:28N 40°42' W 074°09'0 0.0
2017-Dec-10 13:58N 40°42' W 074°09'0 0.0
2017-Dec-10 13:28N 40°42' W 074°09'0 0.0
2017-Dec-10 12:58N 40°42' W 074°09'0 0.0
2017-Dec-10 12:28N 40°42' W 074°09'0 0.0
2017-Dec-10 11:58N 40°42' W 074°09'0 0.0
2017-Dec-10 11:28N 40°42' W 074°09'1 2.0
2017-Dec-10 11:00N 40°41' W 074°08'3 5.2
2017-Dec-10 10:30N 40°39' W 074°08'3 6.8
2017-Dec-10 10:00N 40°38' W 074°03'510.0
2017-Dec-10 09:30N 40°34' W 074°02'510.6
2017-Dec-10 09:00N 40°30' W 073°57'5 9.8
2017-Dec-10 08:30N 40°28' W 073°51'4 7.2
2017-Dec-10 08:00N 40°26' W 073°47'3 5.5
2017-Dec-10 07:30N 40°25' W 073°43'4 8.5
2017-Dec-10 07:00N 40°22' W 073°39'  
2017-Dec-04 10:26N 39°15' W 076°32'1 2.0
2017-Dec-04 10:01N 39°14' W 076°33'2 3.6
2017-Dec-04 09:29N 39°12' W 076°31'1119.5
2017-Dec-04 08:56N 39°04' W 076°23'0 0.9
2017-Dec-04 08:30N 39°03' W 076°23'714.3
2017-Dec-04 08:00N 38°56' W 076°23'816.9
2017-Dec-04 07:30N 38°48' W 076°25'1217.1
2017-Dec-04 06:49N 38°36' W 076°26'517.1
2017-Dec-04 06:30N 38°31' W 076°25'4320.8
2017-Dec-04 04:26N 37°49' W 076°10'1016.2
2017-Dec-04 03:48N 37°39' W 076°08'2912.9
2017-Dec-04 01:35N 37°11' W 076°09'217.4
2017-Dec-04 01:28N 37°09' W 076°09'817.7
2017-Dec-04 01:00N 37°02' W 076°03'713.1
2017-Dec-04 00:30N 36°57' W 075°58'5 9.6
2017-Dec-04 00:00N 36°54' W 075°53'510.0
2017-Dec-03 23:29N 36°51' W 075°48'334 9.1
2017-Dec-02 10:58N 32°05' W 079°17'7 9.5
2017-Dec-02 10:12N 32°01' W 079°23'7 9.9
2017-Dec-02 09:30N 31°56' W 079°29'9 9.3
2017-Dec-02 08:34N 31°50' W 079°37'1 9.2
2017-Dec-02 08:27N 31°49' W 079°38'10 9.2
2017-Dec-02 07:20N 31°42' W 079°47'4 9.0
2017-Dec-02 06:53N 31°40' W 079°50'8 9.1
2017-Dec-02 06:04N 31°35' W 079°57'1 9.1
2017-Dec-02 06:00N 31°35' W 079°58'  

Dump ship's entire track history